createdAt,value
2019-04-21T00:01:16.660Z,11.60
2019-04-21T00:03:53.328Z,11.90
2019-04-21T00:06:45.964Z,13.05
2019-04-21T00:09:11.492Z,12.73
2019-04-21T00:11:41.289Z,12.58
2019-04-21T00:14:01.888Z,12.15
2019-04-21T00:16:32.219Z,10.98
2019-04-21T00:19:09.379Z,11.40
2019-04-21T00:21:40.483Z,12.13
2019-04-21T00:24:23.947Z,11.25
2019-04-21T00:27:05.291Z,10.23
2019-04-21T00:29:33.939Z,9.50
2019-04-21T00:32:00.387Z,8.23
2019-04-21T00:34:17.487Z,8.73
2019-04-21T00:36:57.290Z,9.15
2019-04-21T00:39:48.854Z,9.63
2019-04-21T00:42:09.888Z,7.90
2019-04-21T00:44:35.519Z,8.73
2019-04-21T00:47:06.938Z,8.60
2019-04-21T00:49:47.772Z,9.45
2019-04-21T00:55:27.877Z,9.15
2019-04-21T00:57:58.520Z,8.48
2019-04-21T01:02:56.018Z,7.72
2019-04-21T01:05:27.141Z,8.00
2019-04-21T01:08:01.409Z,8.33
2019-04-21T01:10:21.072Z,8.38
2019-04-21T01:13:02.701Z,9.08
2019-04-21T01:15:37.105Z,8.68
2019-04-21T01:18:05.001Z,8.15
2019-04-21T01:20:17.629Z,8.73
2019-04-21T01:22:45.238Z,8.00
2019-04-21T01:25:22.892Z,7.95
2019-04-21T01:27:59.355Z,8.40
2019-04-21T01:30:42.961Z,8.18
2019-04-21T01:33:17.013Z,8.60
2019-04-21T01:35:42.583Z,7.80
2019-04-21T01:38:28.883Z,6.83
2019-04-21T01:41:17.964Z,7.10
2019-04-21T01:43:34.997Z,6.83
2019-04-21T01:46:11.223Z,7.15
2019-04-21T01:48:34.473Z,7.20
2019-04-21T01:51:08.533Z,7.22
2019-04-21T01:54:03.527Z,5.78
2019-04-21T01:56:51.176Z,6.78
2019-04-21T01:59:10.783Z,6.05
2019-04-21T02:01:59.297Z,6.25
2019-04-21T02:04:34.150Z,5.90
2019-04-21T02:07:01.036Z,5.40
2019-04-21T02:09:30.918Z,5.60
2019-04-21T02:12:08.724Z,5.53
2019-04-21T02:14:41.414Z,5.30
2019-04-21T02:17:11.744Z,5.45
2019-04-21T02:19:31.625Z,5.60
2019-04-21T02:21:59.566Z,5.75
2019-04-21T02:27:29.845Z,5.75
2019-04-21T02:30:14.258Z,5.40
2019-04-21T02:32:53.814Z,4.90
2019-04-21T02:35:25.555Z,5.00
2019-04-21T02:37:54.786Z,5.20
2019-04-21T02:40:24.070Z,5.17
2019-04-21T02:42:56.088Z,5.08
2019-04-21T02:45:23.310Z,5.65
2019-04-21T02:47:59.623Z,4.97
2019-04-21T02:52:53.954Z,5.15
2019-04-21T02:55:22.294Z,5.03
2019-04-21T03:04:00.702Z,5.47
2019-04-21T03:09:24.093Z,5.53
2019-04-21T03:11:59.470Z,6.40
2019-04-21T03:14:41.456Z,5.50
2019-04-21T03:16:47.174Z,6.33
2019-04-21T03:19:37.968Z,5.87
2019-04-21T03:22:11.865Z,6.00
2019-04-21T03:25:20.483Z,6.17
2019-04-21T03:29:57.062Z,6.50
2019-04-21T03:37:25.488Z,7.55
2019-04-21T03:39:54.452Z,6.87
2019-04-21T03:42:26.932Z,7.40
2019-04-21T03:50:11.375Z,7.78
2019-04-21T03:52:30.218Z,7.17
2019-04-21T04:09:45.650Z,7.87
2019-04-21T04:12:13.271Z,8.28
2019-04-21T04:19:49.384Z,7.35
2019-04-21T04:25:03.501Z,7.87
2019-04-21T04:29:59.045Z,8.00
2019-04-21T04:32:28.669Z,7.83
2019-04-21T04:35:03.422Z,7.67
2019-04-21T04:37:31.791Z,8.05
2019-04-21T04:42:39.222Z,7.67
2019-04-21T04:45:22.708Z,7.15
2019-04-21T04:50:00.813Z,8.10
2019-04-21T04:55:29.599Z,7.72
2019-04-21T04:57:54.069Z,7.72
2019-04-21T05:02:41.760Z,7.22
2019-04-21T05:05:20.702Z,7.30
2019-04-21T05:07:57.270Z,7.72
2019-04-21T05:10:27.595Z,7.45
2019-04-21T05:15:16.208Z,8.08
2019-04-21T05:17:52.484Z,7.62
2019-04-21T05:20:26.054Z,7.72
2019-04-21T05:22:53.280Z,7.25
2019-04-21T05:25:18.553Z,7.20
2019-04-21T05:27:50.016Z,8.35
2019-04-21T05:30:34.144Z,7.92
2019-04-21T05:33:13.095Z,8.03
2019-04-21T05:35:56.146Z,8.03
2019-04-21T05:38:23.341Z,8.43
2019-04-21T05:40:52.390Z,8.20
2019-04-21T05:43:32.255Z,7.95
2019-04-21T05:46:18.416Z,7.67
2019-04-21T05:48:36.393Z,8.28
2019-04-21T05:51:20.450Z,8.25
2019-04-21T05:53:56.166Z,7.60
2019-04-21T05:56:31.422Z,7.53
2019-04-21T05:58:57.502Z,8.13
2019-04-21T06:01:34.522Z,7.45
2019-04-21T06:04:07.596Z,7.40
2019-04-21T06:06:34.058Z,7.75
2019-04-21T06:09:01.965Z,7.83
2019-04-21T06:11:40.309Z,8.10
2019-04-21T06:14:08.269Z,8.40
2019-04-21T06:16:43.620Z,8.00
2019-04-21T06:19:05.218Z,8.63
2019-04-21T06:21:40.528Z,8.98
2019-04-21T06:24:11.534Z,8.88
2019-04-21T06:26:54.813Z,9.03
2019-04-21T06:29:18.146Z,8.63
2019-04-21T06:32:19.116Z,8.13
2019-04-21T06:34:16.736Z,8.55
2019-04-21T06:39:31.784Z,8.25
2019-04-21T06:42:05.312Z,8.18
2019-04-21T06:44:32.306Z,8.50
2019-04-21T06:47:07.675Z,8.35
2019-04-21T06:49:30.949Z,8.55
2019-04-21T06:52:20.564Z,8.13
2019-04-21T06:54:44.339Z,7.90
2019-04-21T06:57:11.777Z,7.80
2019-04-21T06:59:41.861Z,8.10
2019-04-21T07:04:43.384Z,8.03
2019-04-21T07:07:14.503Z,7.60
2019-04-21T07:10:04.860Z,8.03
2019-04-21T07:12:13.934Z,8.08
2019-04-21T07:14:49.834Z,8.13
2019-04-21T07:17:24.684Z,8.78
2019-04-21T07:19:55.184Z,8.33
2019-04-21T07:22:24.516Z,8.28
2019-04-21T07:25:00.659Z,7.92
2019-04-21T07:27:31.948Z,7.80
2019-04-21T07:29:59.650Z,8.60
2019-04-21T07:32:29.875Z,8.53
2019-04-21T07:35:03.875Z,8.33
2019-04-21T07:37:31.649Z,8.80
2019-04-21T07:39:54.534Z,9.20
2019-04-21T07:42:24.086Z,8.88
2019-04-21T07:44:55.346Z,9.10
2019-04-21T07:47:34.322Z,8.53
2019-04-21T07:53:01.129Z,8.83
2019-04-21T07:57:56.235Z,9.70
2019-04-21T08:00:38.979Z,9.70
2019-04-21T08:03:09.366Z,9.43
2019-04-21T08:05:53.508Z,9.60
2019-04-21T08:07:59.550Z,8.58
2019-04-21T08:10:33.295Z,8.93
2019-04-21T08:13:09.498Z,8.50
2019-04-21T08:15:58.101Z,8.98
2019-04-21T08:18:34.997Z,7.95
2019-04-21T08:21:02.449Z,9.08
2019-04-21T08:23:31.878Z,7.58
2019-04-21T08:26:04.657Z,8.00
2019-04-21T08:28:42.681Z,8.05
2019-04-21T08:31:09.865Z,7.35
2019-04-21T08:36:19.308Z,7.72
2019-04-21T08:38:41.736Z,7.42
2019-04-21T08:41:12.320Z,6.78
2019-04-21T08:43:44.621Z,6.47
2019-04-21T08:46:21.103Z,7.00
2019-04-21T08:48:49.477Z,6.42
2019-04-21T08:56:30.374Z,7.12
2019-04-21T08:59:05.458Z,7.03
2019-04-21T09:04:13.106Z,6.40
2019-04-21T09:09:17.906Z,6.30
2019-04-21T09:11:49.915Z,6.42
2019-04-21T09:14:20.742Z,6.33
2019-04-21T09:16:46.018Z,6.50
2019-04-21T09:19:34.041Z,6.47
2019-04-21T09:21:59.498Z,6.58
2019-04-21T09:24:41.200Z,5.65
2019-04-21T09:26:54.217Z,5.80
2019-04-21T09:29:19.504Z,6.55
2019-04-21T09:31:42.786Z,5.87
2019-04-21T09:34:20.030Z,6.28
2019-04-21T09:36:46.708Z,6.85
2019-04-21T09:39:18.260Z,8.10
2019-04-21T09:41:44.945Z,6.08
2019-04-21T09:44:22.052Z,6.35
2019-04-21T09:46:50.640Z,6.12
2019-04-21T09:49:21.747Z,6.27
2019-04-21T09:51:48.386Z,6.33
2019-04-21T09:54:24.958Z,5.92
2019-04-21T09:56:54.953Z,6.85
2019-04-21T09:59:28.179Z,6.20
2019-04-21T10:01:59.260Z,10.20
2019-04-21T10:04:23.185Z,12.50
2019-04-21T10:06:54.304Z,7.80
2019-04-21T10:09:24.348Z,10.60
2019-04-21T10:15:26.308Z,7.42
2019-04-21T10:20:51.847Z,7.30
2019-04-21T10:23:21.457Z,9.48
2019-04-21T10:25:50.976Z,10.10
2019-04-21T10:30:51.041Z,7.80
2019-04-21T10:35:49.344Z,7.20
2019-04-21T10:40:49.716Z,7.35
2019-04-21T10:43:22.166Z,7.40
2019-04-21T10:45:50.773Z,7.12
2019-04-21T10:48:20.990Z,7.97
2019-04-21T10:50:52.689Z,6.97
2019-04-21T10:53:31.078Z,7.05
2019-04-21T10:56:12.193Z,7.20
2019-04-21T10:58:34.143Z,8.00
2019-04-21T11:01:14.368Z,8.80
2019-04-21T11:03:46.650Z,7.50
2019-04-21T11:06:18.892Z,8.43
2019-04-21T11:08:52.368Z,12.30
2019-04-21T11:11:19.998Z,10.75
2019-04-21T11:16:19.205Z,17.82
2019-04-21T11:18:51.495Z,14.20
2019-04-21T11:21:21.287Z,11.10
2019-04-21T11:26:19.995Z,13.55
2019-04-21T11:28:50.531Z,10.95
2019-04-21T11:31:20.930Z,11.55
2019-04-21T11:33:51.211Z,13.20
2019-04-21T11:36:21.606Z,11.10
2019-04-21T11:39:07.222Z,15.30
2019-04-21T11:41:24.001Z,11.38
2019-04-21T11:46:22.675Z,11.22
2019-04-21T11:51:22.804Z,13.45
2019-04-21T11:53:52.953Z,10.90
2019-04-21T11:56:23.089Z,11.48
2019-04-21T11:58:54.080Z,10.00
2019-04-21T12:01:25.502Z,10.75
2019-04-21T12:03:55.719Z,10.45
2019-04-21T12:06:32.324Z,9.78
2019-04-21T12:08:59.349Z,10.60
2019-04-21T12:11:27.653Z,12.68
2019-04-21T12:16:25.910Z,11.57
2019-04-21T12:21:53.462Z,14.25
2019-04-21T12:24:15.460Z,20.60
2019-04-21T12:29:14.638Z,12.55
2019-04-21T12:31:55.175Z,22.67
2019-04-21T12:34:44.202Z,15.88
2019-04-21T12:37:15.012Z,16.93
2019-04-21T12:39:45.092Z,14.00
2019-04-21T12:42:14.852Z,14.23
2019-04-21T12:44:45.436Z,13.72
2019-04-21T12:47:16.240Z,11.20
2019-04-21T12:49:46.084Z,18.95
2019-04-21T12:54:45.875Z,12.35
2019-04-21T12:57:30.216Z,11.57
2019-04-21T12:59:58.888Z,10.63
2019-04-21T13:02:29.542Z,9.08
2019-04-21T13:04:59.716Z,8.95
2019-04-21T13:07:31.201Z,6.87
2019-04-21T13:10:02.351Z,6.75
2019-04-21T13:12:33.279Z,8.38
2019-04-21T13:15:04.229Z,8.40
2019-04-21T13:17:35.293Z,7.70
2019-04-21T13:20:07.340Z,8.53
2019-04-21T13:22:57.711Z,10.32
2019-04-21T13:25:27.808Z,7.55
2019-04-21T13:27:58.672Z,9.58
2019-04-21T13:30:28.489Z,8.75
2019-04-21T13:32:58.892Z,12.07
2019-04-21T13:35:28.912Z,9.55
2019-04-21T13:37:58.637Z,12.40
2019-04-21T13:43:06.605Z,8.83
2019-04-21T13:45:35.917Z,13.18
2019-04-21T13:48:06.675Z,9.53
2019-04-21T13:50:37.349Z,8.03
2019-04-21T13:53:07.035Z,12.03
2019-04-21T13:58:08.413Z,6.87
2019-04-21T14:00:38.297Z,7.47
2019-04-21T14:05:38.124Z,7.28
2019-04-21T14:08:09.159Z,7.55
2019-04-21T14:10:39.806Z,7.22
2019-04-21T14:13:09.397Z,8.08
2019-04-21T14:18:08.764Z,9.43
2019-04-21T14:20:39.544Z,8.40
2019-04-21T14:23:20.513Z,7.28
2019-04-21T14:25:41.619Z,7.03
2019-04-21T14:28:14.246Z,7.33
2019-04-21T14:30:44.296Z,9.85
2019-04-21T14:33:14.173Z,8.00
2019-04-21T14:35:45.107Z,7.53
2019-04-21T14:38:16.538Z,6.25
2019-04-21T14:40:46.250Z,7.33
2019-04-21T14:43:16.438Z,8.48
2019-04-21T14:45:48.454Z,7.72
2019-04-21T14:48:23.202Z,6.80
2019-04-21T14:50:54.674Z,7.70
2019-04-21T14:53:25.796Z,15.13
2019-04-21T14:55:57.386Z,10.48
2019-04-21T14:58:27.415Z,9.65
2019-04-21T15:01:18.136Z,9.40
2019-04-21T15:03:47.894Z,7.65
2019-04-21T15:06:17.540Z,221.65
2019-04-21T15:11:17.995Z,663.87
2019-04-21T15:13:48.123Z,999.90
2019-04-21T15:16:18.699Z,820.35
2019-04-21T15:18:48.636Z,204.75
2019-04-21T15:21:19.428Z,841.08
2019-04-21T15:23:50.583Z,495.98
2019-04-21T15:26:20.323Z,147.70
2019-04-21T15:28:50.946Z,200.45
2019-04-21T15:31:28.759Z,337.42
2019-04-21T15:33:52.854Z,112.08
2019-04-21T15:36:22.906Z,83.72
2019-04-21T15:38:53.987Z,10.35
2019-04-21T15:41:24.689Z,8.60
2019-04-21T15:43:54.418Z,11.00
2019-04-21T15:46:24.867Z,16.02
2019-04-21T15:49:15.500Z,8.83
2019-04-21T15:51:46.376Z,11.30
2019-04-21T15:54:16.511Z,27.70
2019-04-21T15:59:30.601Z,15.85
2019-04-21T16:02:04.227Z,27.10
2019-04-21T16:04:36.799Z,18.30
2019-04-21T16:07:08.356Z,16.87
2019-04-21T16:09:46.135Z,15.48
2019-04-21T16:12:17.809Z,15.32
2019-04-21T16:14:47.706Z,12.93
2019-04-21T16:22:16.799Z,10.00
2019-04-21T16:24:47.775Z,9.33
2019-04-21T16:27:17.610Z,9.78
2019-04-21T16:29:47.906Z,9.30
2019-04-21T16:32:19.770Z,13.15
2019-04-21T16:34:54.371Z,13.83
2019-04-21T16:37:19.949Z,13.98
2019-04-21T16:42:22.529Z,19.45
2019-04-21T16:44:52.770Z,22.85
2019-04-21T16:47:24.165Z,21.15
2019-04-21T16:49:53.999Z,19.80
2019-04-21T16:52:25.903Z,17.57
2019-04-21T16:57:43.816Z,16.30
2019-04-21T17:00:26.874Z,14.45
2019-04-21T17:02:48.330Z,17.85
2019-04-21T17:05:18.317Z,22.48
2019-04-21T17:07:49.237Z,25.15
2019-04-21T17:10:20.277Z,26.35
2019-04-21T17:12:51.004Z,26.20
2019-04-21T17:15:51.914Z,24.80
2019-04-21T17:18:22.812Z,22.58
2019-04-21T17:20:46.096Z,22.07
2019-04-21T17:23:07.173Z,21.37
2019-04-21T17:25:37.184Z,17.25
2019-04-21T17:28:07.838Z,17.77
2019-04-21T17:30:37.766Z,20.02
2019-04-21T17:33:10.287Z,21.07
2019-04-21T17:35:39.109Z,21.17
2019-04-21T17:40:40.004Z,23.67
2019-04-21T17:43:14.386Z,24.82
2019-04-21T17:45:41.403Z,21.37
2019-04-21T17:48:14.946Z,20.05
2019-04-21T17:50:45.364Z,16.65
2019-04-21T17:53:27.840Z,14.53
2019-04-21T17:56:15.255Z,14.78
2019-04-21T17:58:48.727Z,14.00
2019-04-21T18:03:53.547Z,13.53
2019-04-21T18:06:11.235Z,13.65
2019-04-21T18:08:46.209Z,14.28
2019-04-21T18:11:42.519Z,15.00
2019-04-21T18:13:49.886Z,16.17
2019-04-21T18:18:50.757Z,15.98
2019-04-21T18:21:32.364Z,15.45
2019-04-21T18:24:08.032Z,15.00
2019-04-21T18:26:41.763Z,15.28
2019-04-21T18:29:07.526Z,15.15
2019-04-21T18:31:44.814Z,15.38
2019-04-21T18:34:29.270Z,16.05
2019-04-21T18:37:04.868Z,14.95
2019-04-21T18:42:39.848Z,16.80
2019-04-21T18:51:04.795Z,15.60
2019-04-21T18:53:47.001Z,17.67
2019-04-21T18:56:20.983Z,20.27
2019-04-21T18:58:50.993Z,20.60
2019-04-21T19:01:27.273Z,21.30
2019-04-21T19:03:55.641Z,22.25
2019-04-21T19:06:44.286Z,22.82
2019-04-21T19:09:11.568Z,23.55
2019-04-21T19:11:44.994Z,24.23
2019-04-21T19:14:29.035Z,26.62
2019-04-21T19:16:59.072Z,28.07
2019-04-21T19:19:41.427Z,30.00
2019-04-21T19:21:55.875Z,30.10
2019-04-21T19:24:59.506Z,31.77
2019-04-21T19:27:18.939Z,34.23
2019-04-21T19:29:51.901Z,37.28
2019-04-21T19:32:19.912Z,34.15
2019-04-21T19:34:34.739Z,36.83
2019-04-21T19:37:10.855Z,35.75
2019-04-21T19:39:48.845Z,33.70
2019-04-21T19:42:30.915Z,32.85
2019-04-21T19:45:06.095Z,31.95
2019-04-21T19:47:39.832Z,29.95
2019-04-21T19:50:11.589Z,29.15
2019-04-21T19:52:34.537Z,32.73
2019-04-21T19:54:56.195Z,33.75
2019-04-21T19:57:25.104Z,34.88
2019-04-21T19:59:59.131Z,35.90
2019-04-21T20:02:26.792Z,38.05
2019-04-21T20:05:02.131Z,50.85
2019-04-21T20:07:43.825Z,51.42
2019-04-21T20:10:23.991Z,54.50
2019-04-21T20:12:50.313Z,63.83
2019-04-21T20:15:33.075Z,62.38
2019-04-21T20:17:50.339Z,64.50
2019-04-21T20:20:07.358Z,75.12
2019-04-21T20:22:51.947Z,77.22
2019-04-21T20:25:23.178Z,98.40
2019-04-21T20:28:00.684Z,89.83
2019-04-21T20:30:42.460Z,97.65
2019-04-21T20:33:38.017Z,110.00
2019-04-21T20:35:53.361Z,99.87
2019-04-21T20:38:14.876Z,89.17
2019-04-21T20:40:35.632Z,88.80
2019-04-21T20:43:16.444Z,83.27
2019-04-21T20:45:55.625Z,73.45
2019-04-21T20:48:11.432Z,55.00
2019-04-21T20:50:43.436Z,52.08
2019-04-21T20:53:19.828Z,40.20
2019-04-21T20:55:48.558Z,44.30
2019-04-21T20:58:24.115Z,40.35
2019-04-21T21:01:06.381Z,37.53
2019-04-21T21:03:24.257Z,34.75
2019-04-21T21:05:50.435Z,30.45
2019-04-21T21:08:31.186Z,29.40
2019-04-21T21:10:57.523Z,26.97
2019-04-21T21:13:32.203Z,27.42
2019-04-21T21:16:13.817Z,36.13
2019-04-21T21:21:29.628Z,34.75
2019-04-21T21:24:03.469Z,37.75
2019-04-21T21:26:38.253Z,35.43
2019-04-21T21:29:01.973Z,31.65
2019-04-21T21:31:41.700Z,30.62
2019-04-21T21:34:16.518Z,30.20
2019-04-21T21:36:41.802Z,27.95
2019-04-21T21:39:10.950Z,29.07
2019-04-21T21:41:33.625Z,28.75
2019-04-21T21:44:05.868Z,28.70
2019-04-21T21:46:44.524Z,25.70
2019-04-21T21:49:33.785Z,24.72
2019-04-21T21:52:02.962Z,23.70
2019-04-21T21:54:23.206Z,24.12
2019-04-21T21:59:37.968Z,24.43
2019-04-21T22:02:09.463Z,25.75
2019-04-21T22:04:38.940Z,29.45
2019-04-21T22:07:12.427Z,27.65
2019-04-21T22:09:39.971Z,29.00
2019-04-21T22:12:10.995Z,30.37
2019-04-21T22:14:46.544Z,30.50
2019-04-21T22:17:33.163Z,28.95
2019-04-21T22:20:03.079Z,29.32
2019-04-21T22:22:28.100Z,31.60
2019-04-21T22:24:55.759Z,33.20
2019-04-21T22:27:17.110Z,31.48
2019-04-21T22:32:25.017Z,33.23
2019-04-21T22:34:54.812Z,35.25
2019-04-21T22:37:36.759Z,33.38
2019-04-21T22:40:07.111Z,32.42
2019-04-21T22:42:31.744Z,34.30
2019-04-21T22:45:00.718Z,33.80
2019-04-21T22:47:43.297Z,32.05
2019-04-21T22:50:38.381Z,31.80
2019-04-21T22:53:10.216Z,29.18
2019-04-21T22:55:40.849Z,28.38
2019-04-21T22:58:11.510Z,26.97
2019-04-21T23:04:07.178Z,27.67
2019-04-21T23:06:39.189Z,26.68
2019-04-21T23:09:10.842Z,25.20
2019-04-21T23:11:45.636Z,25.62
2019-04-21T23:14:14.960Z,26.60
2019-04-21T23:16:45.672Z,26.10
2019-04-21T23:19:31.174Z,26.17
2019-04-21T23:22:03.573Z,24.37
2019-04-21T23:24:42.959Z,25.12
2019-04-21T23:27:05.702Z,24.40
2019-04-21T23:29:48.341Z,23.60
2019-04-21T23:32:11.019Z,22.77
2019-04-21T23:34:26.590Z,22.80
2019-04-21T23:37:05.509Z,22.58
2019-04-21T23:39:30.278Z,23.42
2019-04-21T23:41:59.196Z,24.45
2019-04-21T23:44:33.865Z,24.05
2019-04-21T23:47:04.782Z,22.75
2019-04-21T23:49:42.966Z,22.75
2019-04-21T23:52:06.741Z,22.75
2019-04-21T23:54:33.518Z,21.48
2019-04-21T23:57:12.912Z,24.17
2019-04-21T23:59:40.856Z,22.95
